sensor_id;sensor_type;location;lat;lon;timestamp;P1;durP1;ratioP1;P2;durP2;ratioP2
42586;SDS011;28216;53.362;-6.288;2023-05-10T00:00:15;8.45;;;2.75;;
42586;SDS011;28216;53.362;-6.288;2023-05-10T00:02:47;9.30;;;2.05;;
42586;SDS011;28216;53.362;-6.288;2023-05-10T00:05:31;10.25;;;2.25;;
42586;SDS011;28216;53.362;-6.288;2023-05-10T00:08:06;8.40;;;2.08;;
42586;SDS011;28216;53.362;-6.288;2023-05-10T00:10:34;5.53;;;1.77;;
42586;SDS011;28216;53.362;-6.288;2023-05-10T00:13:19;6.18;;;1.70;;
42586;SDS011;28216;53.362;-6.288;2023-05-10T00:15:53;6.75;;;2.00;;
42586;SDS011;28216;53.362;-6.288;2023-05-10T00:18:21;6.85;;;2.10;;
42586;SDS011;28216;53.362;-6.288;2023-05-10T00:20:49;7.50;;;2.10;;
42586;SDS011;28216;53.362;-6.288;2023-05-10T00:23:22;8.02;;;1.92;;
42586;SDS011;28216;53.362;-6.288;2023-05-10T00:26:19;7.82;;;2.00;;
42586;SDS011;28216;53.362;-6.288;2023-05-10T00:28:45;7.38;;;2.28;;
42586;SDS011;28216;53.362;-6.288;2023-05-10T00:31:20;5.65;;;2.05;;
42586;SDS011;28216;53.362;-6.288;2023-05-10T00:33:48;7.88;;;2.05;;
42586;SDS011;28216;53.362;-6.288;2023-05-10T00:36:16;7.07;;;2.08;;
42586;SDS011;28216;53.362;-6.288;2023-05-10T00:38:51;6.68;;;2.20;;
42586;SDS011;28216;53.362;-6.288;2023-05-10T00:41:22;6.90;;;2.28;;
42586;SDS011;28216;53.362;-6.288;2023-05-10T00:43:48;9.68;;;2.20;;
42586;SDS011;28216;53.362;-6.288;2023-05-10T00:46:26;6.93;;;2.10;;
42586;SDS011;28216;53.362;-6.288;2023-05-10T00:49:04;6.35;;;1.90;;
42586;SDS011;28216;53.362;-6.288;2023-05-10T00:51:44;9.25;;;2.20;;
42586;SDS011;28216;53.362;-6.288;2023-05-10T00:54:15;7.93;;;2.22;;
42586;SDS011;28216;53.362;-6.288;2023-05-10T00:56:41;8.98;;;2.20;;
42586;SDS011;28216;53.362;-6.288;2023-05-10T00:59:11;6.88;;;2.45;;
42586;SDS011;28216;53.362;-6.288;2023-05-10T01:01:36;8.68;;;2.05;;
42586;SDS011;28216;53.362;-6.288;2023-05-10T01:04:06;8.52;;;2.10;;
42586;SDS011;28216;53.362;-6.288;2023-05-10T01:06:34;6.55;;;2.08;;
42586;SDS011;28216;53.362;-6.288;2023-05-10T01:09:04;6.22;;;2.35;;
42586;SDS011;28216;53.362;-6.288;2023-05-10T01:11:33;8.93;;;2.40;;
42586;SDS011;28216;53.362;-6.288;2023-05-10T01:14:04;6.65;;;2.10;;
42586;SDS011;28216;53.362;-6.288;2023-05-10T01:16:36;7.78;;;2.15;;
42586;SDS011;28216;53.362;-6.288;2023-05-10T01:19:23;6.13;;;2.38;;
42586;SDS011;28216;53.362;-6.288;2023-05-10T01:22:02;5.43;;;2.10;;
42586;SDS011;28216;53.362;-6.288;2023-05-10T01:34:30;8.55;;;2.05;;
42586;SDS011;28216;53.362;-6.288;2023-05-10T01:36:58;4.60;;;1.60;;
42586;SDS011;28216;53.362;-6.288;2023-05-10T01:39:46;5.85;;;1.70;;
42586;SDS011;28216;53.362;-6.288;2023-05-10T01:42:31;10.07;;;1.77;;
42586;SDS011;28216;53.362;-6.288;2023-05-10T01:45:29;7.35;;;1.98;;
42586;SDS011;28216;53.362;-6.288;2023-05-10T01:48:28;4.20;;;1.60;;
42586;SDS011;28216;53.362;-6.288;2023-05-10T01:50:59;6.68;;;1.80;;
42586;SDS011;28216;53.362;-6.288;2023-05-10T01:53:25;5.05;;;1.77;;
42586;SDS011;28216;53.362;-6.288;2023-05-10T01:56:02;4.30;;;1.88;;
42586;SDS011;28216;53.362;-6.288;2023-05-10T01:58:32;6.88;;;1.88;;
42586;SDS011;28216;53.362;-6.288;2023-05-10T02:01:01;5.45;;;1.98;;
42586;SDS011;28216;53.362;-6.288;2023-05-10T02:03:32;8.85;;;1.85;;
42586;SDS011;28216;53.362;-6.288;2023-05-10T02:06:10;5.13;;;1.73;;
42586;SDS011;28216;53.362;-6.288;2023-05-10T02:08:39;7.40;;;1.90;;
42586;SDS011;28216;53.362;-6.288;2023-05-10T02:11:08;5.43;;;1.65;;
42586;SDS011;28216;53.362;-6.288;2023-05-10T02:13:50;4.63;;;1.70;;
42586;SDS011;28216;53.362;-6.288;2023-05-10T02:16:16;5.70;;;1.55;;
42586;SDS011;28216;53.362;-6.288;2023-05-10T02:18:49;4.88;;;1.70;;
42586;SDS011;28216;53.362;-6.288;2023-05-10T02:21:20;4.28;;;1.60;;
42586;SDS011;28216;53.362;-6.288;2023-05-10T02:23:48;6.25;;;2.05;;
42586;SDS011;28216;53.362;-6.288;2023-05-10T02:26:19;7.78;;;1.90;;
42586;SDS011;28216;53.362;-6.288;2023-05-10T02:28:48;8.57;;;2.03;;
42586;SDS011;28216;53.362;-6.288;2023-05-10T02:31:19;6.05;;;2.08;;
42586;SDS011;28216;53.362;-6.288;2023-05-10T02:33:53;5.20;;;1.60;;
42586;SDS011;28216;53.362;-6.288;2023-05-10T02:36:22;9.15;;;2.03;;
42586;SDS011;28216;53.362;-6.288;2023-05-10T02:38:49;6.40;;;1.70;;
42586;SDS011;28216;53.362;-6.288;2023-05-10T02:41:20;9.02;;;1.83;;
42586;SDS011;28216;53.362;-6.288;2023-05-10T02:43:57;8.57;;;1.83;;
42586;SDS011;28216;53.362;-6.288;2023-05-10T02:46:32;6.38;;;1.60;;
42586;SDS011;28216;53.362;-6.288;2023-05-10T02:49:09;8.57;;;1.90;;
42586;SDS011;28216;53.362;-6.288;2023-05-10T02:51:39;7.60;;;1.90;;
42586;SDS011;28216;53.362;-6.288;2023-05-10T02:54:15;6.45;;;2.15;;
42586;SDS011;28216;53.362;-6.288;2023-05-10T02:56:56;6.10;;;1.70;;
42586;SDS011;28216;53.362;-6.288;2023-05-10T02:59:30;5.85;;;1.63;;
42586;SDS011;28216;53.362;-6.288;2023-05-10T03:02:06;4.25;;;1.70;;
42586;SDS011;28216;53.362;-6.288;2023-05-10T03:04:34;4.85;;;1.55;;
42586;SDS011;28216;53.362;-6.288;2023-05-10T03:07:02;6.20;;;1.70;;
42586;SDS011;28216;53.362;-6.288;2023-05-10T03:09:30;7.00;;;2.13;;
42586;SDS011;28216;53.362;-6.288;2023-05-10T03:15:11;5.03;;;1.83;;
42586;SDS011;28216;53.362;-6.288;2023-05-10T03:18:06;7.15;;;2.10;;
42586;SDS011;28216;53.362;-6.288;2023-05-10T03:20:57;6.15;;;1.98;;
42586;SDS011;28216;53.362;-6.288;2023-05-10T03:23:30;10.00;;;1.90;;
42586;SDS011;28216;53.362;-6.288;2023-05-10T03:28:51;6.10;;;1.88;;
42586;SDS011;28216;53.362;-6.288;2023-05-10T03:31:21;9.30;;;2.03;;
42586;SDS011;28216;53.362;-6.288;2023-05-10T03:33:50;7.13;;;2.20;;
42586;SDS011;28216;53.362;-6.288;2023-05-10T03:36:20;10.30;;;2.10;;
42586;SDS011;28216;53.362;-6.288;2023-05-10T03:38:51;8.20;;;2.00;;
42586;SDS011;28216;53.362;-6.288;2023-05-10T03:41:19;6.13;;;1.88;;
42586;SDS011;28216;53.362;-6.288;2023-05-10T03:44:05;6.18;;;1.85;;
42586;SDS011;28216;53.362;-6.288;2023-05-10T03:56:38;4.72;;;1.55;;
42586;SDS011;28216;53.362;-6.288;2023-05-10T03:59:18;8.23;;;2.10;;
42586;SDS011;28216;53.362;-6.288;2023-05-10T04:01:46;6.30;;;1.77;;
42586;SDS011;28216;53.362;-6.288;2023-05-10T04:04:19;6.80;;;2.10;;
42586;SDS011;28216;53.362;-6.288;2023-05-10T04:06:48;7.72;;;1.90;;
42586;SDS011;28216;53.362;-6.288;2023-05-10T04:09:19;6.18;;;1.90;;
42586;SDS011;28216;53.362;-6.288;2023-05-10T04:11:50;8.10;;;2.25;;
42586;SDS011;28216;53.362;-6.288;2023-05-10T04:14:20;7.65;;;2.17;;
42586;SDS011;28216;53.362;-6.288;2023-05-10T04:16:48;9.30;;;1.90;;
42586;SDS011;28216;53.362;-6.288;2023-05-10T04:19:14;7.75;;;2.10;;
42586;SDS011;28216;53.362;-6.288;2023-05-10T04:21:47;9.45;;;1.98;;
42586;SDS011;28216;53.362;-6.288;2023-05-10T04:24:15;8.57;;;2.00;;
42586;SDS011;28216;53.362;-6.288;2023-05-10T04:26:49;7.00;;;1.65;;
42586;SDS011;28216;53.362;-6.288;2023-05-10T04:29:14;8.88;;;2.17;;
42586;SDS011;28216;53.362;-6.288;2023-05-10T04:31:44;7.07;;;2.15;;
42586;SDS011;28216;53.362;-6.288;2023-05-10T04:34:16;6.25;;;2.00;;
42586;SDS011;28216;53.362;-6.288;2023-05-10T04:36:44;10.82;;;2.63;;
42586;SDS011;28216;53.362;-6.288;2023-05-10T04:39:10;7.88;;;1.90;;
42586;SDS011;28216;53.362;-6.288;2023-05-10T04:41:43;6.90;;;1.88;;
42586;SDS011;28216;53.362;-6.288;2023-05-10T04:44:13;10.55;;;2.40;;
42586;SDS011;28216;53.362;-6.288;2023-05-10T04:46:39;7.60;;;2.13;;
42586;SDS011;28216;53.362;-6.288;2023-05-10T04:51:53;8.73;;;2.45;;
42586;SDS011;28216;53.362;-6.288;2023-05-10T04:54:36;6.60;;;1.77;;
42586;SDS011;28216;53.362;-6.288;2023-05-10T04:57:10;4.78;;;1.70;;
42586;SDS011;28216;53.362;-6.288;2023-05-10T04:59:41;5.63;;;1.63;;
42586;SDS011;28216;53.362;-6.288;2023-05-10T05:02:11;6.43;;;1.52;;
42586;SDS011;28216;53.362;-6.288;2023-05-10T05:04:59;5.07;;;1.58;;
42586;SDS011;28216;53.362;-6.288;2023-05-10T05:07:27;6.60;;;1.67;;
42586;SDS011;28216;53.362;-6.288;2023-05-10T05:10:01;5.13;;;1.40;;
42586;SDS011;28216;53.362;-6.288;2023-05-10T05:12:26;5.50;;;1.77;;
42586;SDS011;28216;53.362;-6.288;2023-05-10T05:14:54;8.65;;;1.85;;
42586;SDS011;28216;53.362;-6.288;2023-05-10T05:17:22;6.47;;;1.90;;
42586;SDS011;28216;53.362;-6.288;2023-05-10T05:19:48;10.25;;;1.85;;
42586;SDS011;28216;53.362;-6.288;2023-05-10T05:22:16;7.45;;;1.80;;
42586;SDS011;28216;53.362;-6.288;2023-05-10T05:24:42;5.40;;;1.67;;
42586;SDS011;28216;53.362;-6.288;2023-05-10T05:27:10;9.57;;;1.85;;
42586;SDS011;28216;53.362;-6.288;2023-05-10T05:29:35;5.68;;;1.55;;
42586;SDS011;28216;53.362;-6.288;2023-05-10T05:32:01;5.80;;;1.75;;
42586;SDS011;28216;53.362;-6.288;2023-05-10T05:34:39;6.13;;;1.67;;
42586;SDS011;28216;53.362;-6.288;2023-05-10T05:37:12;6.43;;;1.67;;
42586;SDS011;28216;53.362;-6.288;2023-05-10T05:39:38;7.65;;;1.83;;
42586;SDS011;28216;53.362;-6.288;2023-05-10T05:42:04;4.78;;;1.55;;
42586;SDS011;28216;53.362;-6.288;2023-05-10T05:44:34;6.25;;;1.70;;
42586;SDS011;28216;53.362;-6.288;2023-05-10T05:46:59;4.82;;;1.45;;
42586;SDS011;28216;53.362;-6.288;2023-05-10T05:49:28;4.90;;;1.60;;
42586;SDS011;28216;53.362;-6.288;2023-05-10T05:52:02;3.97;;;1.50;;
42586;SDS011;28216;53.362;-6.288;2023-05-10T05:54:29;3.67;;;1.23;;
42586;SDS011;28216;53.362;-6.288;2023-05-10T05:56:55;4.70;;;1.70;;
42586;SDS011;28216;53.362;-6.288;2023-05-10T05:59:21;3.67;;;1.30;;
42586;SDS011;28216;53.362;-6.288;2023-05-10T06:01:47;3.70;;;1.58;;
42586;SDS011;28216;53.362;-6.288;2023-05-10T06:04:12;4.00;;;1.27;;
42586;SDS011;28216;53.362;-6.288;2023-05-10T06:06:38;4.85;;;1.40;;
42586;SDS011;28216;53.362;-6.288;2023-05-10T06:09:03;6.28;;;1.65;;
42586;SDS011;28216;53.362;-6.288;2023-05-10T06:11:29;4.65;;;1.60;;
42586;SDS011;28216;53.362;-6.288;2023-05-10T06:13:57;4.93;;;1.42;;
42586;SDS011;28216;53.362;-6.288;2023-05-10T06:16:22;4.60;;;1.10;;
42586;SDS011;28216;53.362;-6.288;2023-05-10T06:18:48;6.53;;;1.55;;
42586;SDS011;28216;53.362;-6.288;2023-05-10T06:21:13;6.22;;;1.40;;
42586;SDS011;28216;53.362;-6.288;2023-05-10T06:23:40;5.38;;;1.48;;
42586;SDS011;28216;53.362;-6.288;2023-05-10T06:26:05;5.45;;;1.50;;
42586;SDS011;28216;53.362;-6.288;2023-05-10T06:28:31;4.07;;;1.20;;
42586;SDS011;28216;53.362;-6.288;2023-05-10T06:30:57;3.90;;;1.27;;
42586;SDS011;28216;53.362;-6.288;2023-05-10T06:33:22;3.83;;;1.30;;
42586;SDS011;28216;53.362;-6.288;2023-05-10T06:35:48;3.65;;;1.33;;
42586;SDS011;28216;53.362;-6.288;2023-05-10T06:38:16;2.17;;;1.23;;
42586;SDS011;28216;53.362;-6.288;2023-05-10T06:40:44;6.00;;;1.27;;
42586;SDS011;28216;53.362;-6.288;2023-05-10T06:43:09;3.97;;;1.40;;
42586;SDS011;28216;53.362;-6.288;2023-05-10T06:45:37;3.40;;;1.30;;
42586;SDS011;28216;53.362;-6.288;2023-05-10T06:48:03;4.78;;;1.50;;
42586;SDS011;28216;53.362;-6.288;2023-05-10T06:50:28;3.75;;;1.52;;
42586;SDS011;28216;53.362;-6.288;2023-05-10T06:52:54;3.92;;;1.30;;
42586;SDS011;28216;53.362;-6.288;2023-05-10T06:55:20;2.15;;;1.15;;
42586;SDS011;28216;53.362;-6.288;2023-05-10T06:57:46;3.67;;;1.40;;
42586;SDS011;28216;53.362;-6.288;2023-05-10T07:00:12;2.92;;;1.10;;
42586;SDS011;28216;53.362;-6.288;2023-05-10T07:05:25;2.58;;;1.08;;
42586;SDS011;28216;53.362;-6.288;2023-05-10T07:07:57;3.25;;;1.17;;
42586;SDS011;28216;53.362;-6.288;2023-05-10T07:10:23;5.88;;;1.40;;
42586;SDS011;28216;53.362;-6.288;2023-05-10T07:12:59;5.38;;;1.50;;
42586;SDS011;28216;53.362;-6.288;2023-05-10T07:15:26;6.38;;;1.60;;
42586;SDS011;28216;53.362;-6.288;2023-05-10T07:17:51;3.10;;;1.00;;
42586;SDS011;28216;53.362;-6.288;2023-05-10T07:20:17;3.45;;;1.08;;
42586;SDS011;28216;53.362;-6.288;2023-05-10T07:22:43;4.88;;;1.35;;
42586;SDS011;28216;53.362;-6.288;2023-05-10T07:25:08;2.67;;;0.80;;
42586;SDS011;28216;53.362;-6.288;2023-05-10T07:27:34;3.08;;;0.95;;
42586;SDS011;28216;53.362;-6.288;2023-05-10T07:29:59;3.40;;;0.85;;
42586;SDS011;28216;53.362;-6.288;2023-05-10T07:32:25;2.67;;;0.85;;
42586;SDS011;28216;53.362;-6.288;2023-05-10T07:34:51;2.75;;;0.95;;
42586;SDS011;28216;53.362;-6.288;2023-05-10T07:37:19;1.73;;;0.60;;
42586;SDS011;28216;53.362;-6.288;2023-05-10T07:39:47;2.42;;;0.90;;
42586;SDS011;28216;53.362;-6.288;2023-05-10T07:42:18;3.25;;;1.08;;
42586;SDS011;28216;53.362;-6.288;2023-05-10T07:44:46;2.42;;;0.63;;
42586;SDS011;28216;53.362;-6.288;2023-05-10T07:47:12;2.08;;;0.80;;
42586;SDS011;28216;53.362;-6.288;2023-05-10T07:49:37;1.75;;;0.90;;
42586;SDS011;28216;53.362;-6.288;2023-05-10T07:52:03;1.80;;;0.70;;
42586;SDS011;28216;53.362;-6.288;2023-05-10T07:54:28;2.42;;;1.05;;
42586;SDS011;28216;53.362;-6.288;2023-05-10T07:56:54;1.13;;;0.70;;
42586;SDS011;28216;53.362;-6.288;2023-05-10T07:59:19;1.63;;;0.75;;
42586;SDS011;28216;53.362;-6.288;2023-05-10T08:01:46;1.70;;;0.88;;
42586;SDS011;28216;53.362;-6.288;2023-05-10T08:04:11;3.83;;;0.90;;
42586;SDS011;28216;53.362;-6.288;2023-05-10T08:06:37;3.75;;;1.15;;
42586;SDS011;28216;53.362;-6.288;2023-05-10T08:09:05;4.82;;;1.63;;
42586;SDS011;28216;53.362;-6.288;2023-05-10T08:11:40;2.35;;;0.90;;
42586;SDS011;28216;53.362;-6.288;2023-05-10T08:14:05;2.60;;;1.10;;
42586;SDS011;28216;53.362;-6.288;2023-05-10T08:16:30;3.05;;;1.20;;
42586;SDS011;28216;53.362;-6.288;2023-05-10T08:18:57;1.40;;;0.93;;
42586;SDS011;28216;53.362;-6.288;2023-05-10T08:21:22;2.25;;;0.90;;
42586;SDS011;28216;53.362;-6.288;2023-05-10T08:23:48;2.50;;;1.00;;
42586;SDS011;28216;53.362;-6.288;2023-05-10T08:26:16;2.10;;;0.90;;
42586;SDS011;28216;53.362;-6.288;2023-05-10T08:28:41;3.90;;;0.80;;
42586;SDS011;28216;53.362;-6.288;2023-05-10T08:31:07;2.13;;;0.80;;
42586;SDS011;28216;53.362;-6.288;2023-05-10T08:33:32;2.75;;;0.90;;
42586;SDS011;28216;53.362;-6.288;2023-05-10T08:35:58;2.78;;;1.10;;
42586;SDS011;28216;53.362;-6.288;2023-05-10T08:38:23;2.67;;;0.95;;
42586;SDS011;28216;53.362;-6.288;2023-05-10T08:40:49;2.10;;;1.10;;
42586;SDS011;28216;53.362;-6.288;2023-05-10T08:43:21;2.13;;;1.10;;
42586;SDS011;28216;53.362;-6.288;2023-05-10T08:45:51;3.40;;;1.15;;
42586;SDS011;28216;53.362;-6.288;2023-05-10T08:48:18;2.38;;;1.08;;
42586;SDS011;28216;53.362;-6.288;2023-05-10T08:50:44;1.85;;;0.90;;
42586;SDS011;28216;53.362;-6.288;2023-05-10T08:53:12;1.35;;;0.90;;
42586;SDS011;28216;53.362;-6.288;2023-05-10T08:55:40;1.05;;;0.80;;
42586;SDS011;28216;53.362;-6.288;2023-05-10T08:58:07;1.15;;;0.75;;
42586;SDS011;28216;53.362;-6.288;2023-05-10T09:00:33;2.05;;;1.00;;
42586;SDS011;28216;53.362;-6.288;2023-05-10T09:03:00;2.70;;;0.95;;
42586;SDS011;28216;53.362;-6.288;2023-05-10T09:05:26;4.32;;;0.95;;
42586;SDS011;28216;53.362;-6.288;2023-05-10T09:07:52;1.73;;;0.90;;
42586;SDS011;28216;53.362;-6.288;2023-05-10T09:10:18;2.55;;;0.80;;
42586;SDS011;28216;53.362;-6.288;2023-05-10T09:12:45;1.13;;;0.70;;
42586;SDS011;28216;53.362;-6.288;2023-05-10T09:15:16;3.78;;;0.90;;
42586;SDS011;28216;53.362;-6.288;2023-05-10T09:17:44;1.83;;;1.05;;
42586;SDS011;28216;53.362;-6.288;2023-05-10T09:20:10;2.10;;;0.85;;
42586;SDS011;28216;53.362;-6.288;2023-05-10T09:22:36;2.08;;;1.00;;
42586;SDS011;28216;53.362;-6.288;2023-05-10T09:25:13;2.75;;;0.93;;
42586;SDS011;28216;53.362;-6.288;2023-05-10T09:27:40;3.03;;;0.90;;
42586;SDS011;28216;53.362;-6.288;2023-05-10T09:30:09;2.30;;;1.00;;
42586;SDS011;28216;53.362;-6.288;2023-05-10T09:32:39;1.65;;;0.80;;
42586;SDS011;28216;53.362;-6.288;2023-05-10T09:35:13;1.25;;;0.82;;
42586;SDS011;28216;53.362;-6.288;2023-05-10T09:37:41;2.35;;;0.90;;
42586;SDS011;28216;53.362;-6.288;2023-05-10T09:40:13;1.85;;;0.88;;
42586;SDS011;28216;53.362;-6.288;2023-05-10T09:42:41;3.15;;;0.80;;
42586;SDS011;28216;53.362;-6.288;2023-05-10T09:45:15;1.60;;;0.80;;
42586;SDS011;28216;53.362;-6.288;2023-05-10T09:47:41;2.35;;;0.85;;
42586;SDS011;28216;53.362;-6.288;2023-05-10T09:50:06;3.25;;;0.80;;
42586;SDS011;28216;53.362;-6.288;2023-05-10T09:55:19;1.45;;;0.80;;
42586;SDS011;28216;53.362;-6.288;2023-05-10T09:57:48;3.17;;;0.90;;
42586;SDS011;28216;53.362;-6.288;2023-05-10T10:00:23;2.20;;;0.90;;
42586;SDS011;28216;53.362;-6.288;2023-05-10T10:02:54;2.28;;;0.88;;
42586;SDS011;28216;53.362;-6.288;2023-05-10T10:05:22;1.20;;;0.70;;
42586;SDS011;28216;53.362;-6.288;2023-05-10T10:07:53;3.28;;;0.73;;
42586;SDS011;28216;53.362;-6.288;2023-05-10T10:10:20;1.40;;;0.75;;
42586;SDS011;28216;53.362;-6.288;2023-05-10T10:12:46;1.25;;;0.60;;
42586;SDS011;28216;53.362;-6.288;2023-05-10T10:15:12;1.40;;;0.60;;
42586;SDS011;28216;53.362;-6.288;2023-05-10T10:17:38;0.50;;;0.50;;
42586;SDS011;28216;53.362;-6.288;2023-05-10T10:20:05;1.67;;;0.60;;
42586;SDS011;28216;53.362;-6.288;2023-05-10T10:22:31;0.85;;;0.70;;
42586;SDS011;28216;53.362;-6.288;2023-05-10T10:24:56;0.88;;;0.70;;
42586;SDS011;28216;53.362;-6.288;2023-05-10T10:32:35;1.70;;;0.88;;
42586;SDS011;28216;53.362;-6.288;2023-05-10T10:35:21;2.13;;;0.90;;
42586;SDS011;28216;53.362;-6.288;2023-05-10T10:37:47;1.00;;;0.70;;
42586;SDS011;28216;53.362;-6.288;2023-05-10T10:40:22;1.55;;;0.68;;
42586;SDS011;28216;53.362;-6.288;2023-05-10T10:42:48;3.25;;;0.90;;
42586;SDS011;28216;53.362;-6.288;2023-05-10T10:45:16;2.10;;;0.80;;
42586;SDS011;28216;53.362;-6.288;2023-05-10T10:47:41;1.00;;;0.73;;
42586;SDS011;28216;53.362;-6.288;2023-05-10T10:50:08;2.10;;;0.90;;
42586;SDS011;28216;53.362;-6.288;2023-05-10T10:52:38;1.63;;;1.00;;
42586;SDS011;28216;53.362;-6.288;2023-05-10T10:55:19;1.48;;;0.93;;
42586;SDS011;28216;53.362;-6.288;2023-05-10T11:07:58;0.98;;;0.70;;
42586;SDS011;28216;53.362;-6.288;2023-05-10T11:10:25;0.55;;;0.55;;
42586;SDS011;28216;53.362;-6.288;2023-05-10T11:13:08;1.00;;;0.63;;
42586;SDS011;28216;53.362;-6.288;2023-05-10T11:15:38;2.67;;;0.60;;
42586;SDS011;28216;53.362;-6.288;2023-05-10T11:18:19;2.45;;;0.80;;
42586;SDS011;28216;53.362;-6.288;2023-05-10T11:20:59;2.85;;;0.73;;
42586;SDS011;28216;53.362;-6.288;2023-05-10T11:23:31;1.75;;;0.77;;
42586;SDS011;28216;53.362;-6.288;2023-05-10T11:25:58;1.35;;;0.80;;
42586;SDS011;28216;53.362;-6.288;2023-05-10T11:28:25;1.08;;;0.75;;
42586;SDS011;28216;53.362;-6.288;2023-05-10T11:30:53;1.05;;;0.70;;
42586;SDS011;28216;53.362;-6.288;2023-05-10T11:33:19;2.05;;;1.00;;
42586;SDS011;28216;53.362;-6.288;2023-05-10T11:35:45;0.82;;;0.60;;
42586;SDS011;28216;53.362;-6.288;2023-05-10T11:38:11;1.77;;;0.80;;
42586;SDS011;28216;53.362;-6.288;2023-05-10T11:40:38;4.53;;;1.00;;
42586;SDS011;28216;53.362;-6.288;2023-05-10T11:43:04;2.17;;;1.08;;
42586;SDS011;28216;53.362;-6.288;2023-05-10T11:45:34;1.73;;;0.80;;
42586;SDS011;28216;53.362;-6.288;2023-05-10T11:48:00;1.70;;;0.90;;
42586;SDS011;28216;53.362;-6.288;2023-05-10T11:50:27;3.00;;;0.80;;
42586;SDS011;28216;53.362;-6.288;2023-05-10T11:52:54;3.67;;;0.90;;
42586;SDS011;28216;53.362;-6.288;2023-05-10T11:55:20;1.08;;;0.63;;
42586;SDS011;28216;53.362;-6.288;2023-05-10T11:57:46;2.13;;;0.93;;
42586;SDS011;28216;53.362;-6.288;2023-05-10T12:00:12;0.80;;;0.50;;
42586;SDS011;28216;53.362;-6.288;2023-05-10T12:02:39;1.58;;;0.60;;
42586;SDS011;28216;53.362;-6.288;2023-05-10T12:05:05;0.73;;;0.60;;
42586;SDS011;28216;53.362;-6.288;2023-05-10T12:07:31;3.30;;;1.05;;
42586;SDS011;28216;53.362;-6.288;2023-05-10T12:10:10;2.08;;;0.90;;
42586;SDS011;28216;53.362;-6.288;2023-05-10T12:12:40;2.03;;;1.00;;
42586;SDS011;28216;53.362;-6.288;2023-05-10T12:15:10;1.80;;;0.90;;
42586;SDS011;28216;53.362;-6.288;2023-05-10T12:17:46;2.25;;;1.00;;
42586;SDS011;28216;53.362;-6.288;2023-05-10T12:22:52;2.25;;;0.90;;
42586;SDS011;28216;53.362;-6.288;2023-05-10T12:25:20;1.80;;;0.90;;
42586;SDS011;28216;53.362;-6.288;2023-05-10T12:30:47;2.70;;;0.90;;
42586;SDS011;28216;53.362;-6.288;2023-05-10T12:33:13;1.65;;;1.05;;
42586;SDS011;28216;53.362;-6.288;2023-05-10T12:35:49;1.73;;;0.73;;
42586;SDS011;28216;53.362;-6.288;2023-05-10T12:38:34;1.50;;;0.77;;
42586;SDS011;28216;53.362;-6.288;2023-05-10T12:41:03;2.25;;;0.85;;
42586;SDS011;28216;53.362;-6.288;2023-05-10T12:43:33;2.05;;;0.80;;
42586;SDS011;28216;53.362;-6.288;2023-05-10T12:46:10;2.42;;;1.00;;
42586;SDS011;28216;53.362;-6.288;2023-05-10T12:48:38;1.40;;;0.90;;
42586;SDS011;28216;53.362;-6.288;2023-05-10T12:51:24;1.33;;;1.00;;
42586;SDS011;28216;53.362;-6.288;2023-05-10T12:53:52;2.25;;;0.60;;
42586;SDS011;28216;53.362;-6.288;2023-05-10T12:56:20;2.10;;;0.75;;
42586;SDS011;28216;53.362;-6.288;2023-05-10T12:58:57;1.73;;;0.90;;
42586;SDS011;28216;53.362;-6.288;2023-05-10T13:04:44;3.92;;;1.27;;
42586;SDS011;28216;53.362;-6.288;2023-05-10T13:07:19;2.47;;;1.02;;
42586;SDS011;28216;53.362;-6.288;2023-05-10T13:09:53;46.85;;;6.85;;
42586;SDS011;28216;53.362;-6.288;2023-05-10T13:12:25;1.45;;;0.95;;
42586;SDS011;28216;53.362;-6.288;2023-05-10T13:14:52;7.68;;;1.65;;
42586;SDS011;28216;53.362;-6.288;2023-05-10T13:17:22;8.60;;;2.10;;
42586;SDS011;28216;53.362;-6.288;2023-05-10T13:19:54;12.95;;;2.45;;
42586;SDS011;28216;53.362;-6.288;2023-05-10T13:22:28;14.77;;;2.70;;
42586;SDS011;28216;53.362;-6.288;2023-05-10T13:24:56;8.38;;;1.90;;
42586;SDS011;28216;53.362;-6.288;2023-05-10T13:27:22;1.73;;;1.00;;
42586;SDS011;28216;53.362;-6.288;2023-05-10T13:29:48;2.80;;;0.90;;
42586;SDS011;28216;53.362;-6.288;2023-05-10T13:32:15;2.17;;;0.90;;
42586;SDS011;28216;53.362;-6.288;2023-05-10T13:34:41;1.30;;;0.80;;
42586;SDS011;28216;53.362;-6.288;2023-05-10T13:37:10;2.53;;;0.85;;
42586;SDS011;28216;53.362;-6.288;2023-05-10T13:39:36;1.23;;;0.80;;
42586;SDS011;28216;53.362;-6.288;2023-05-10T13:42:03;3.35;;;1.10;;
42586;SDS011;28216;53.362;-6.288;2023-05-10T13:44:30;2.03;;;0.98;;
42586;SDS011;28216;53.362;-6.288;2023-05-10T13:46:58;1.85;;;0.98;;
42586;SDS011;28216;53.362;-6.288;2023-05-10T13:49:32;3.03;;;1.15;;
42586;SDS011;28216;53.362;-6.288;2023-05-10T13:52:01;3.78;;;1.20;;
42586;SDS011;28216;53.362;-6.288;2023-05-10T13:54:33;1.15;;;0.93;;
42586;SDS011;28216;53.362;-6.288;2023-05-10T13:57:01;2.40;;;1.02;;
42586;SDS011;28216;53.362;-6.288;2023-05-10T13:59:32;2.35;;;0.80;;
42586;SDS011;28216;53.362;-6.288;2023-05-10T14:02:05;2.95;;;1.00;;
42586;SDS011;28216;53.362;-6.288;2023-05-10T14:04:35;3.28;;;1.00;;
42586;SDS011;28216;53.362;-6.288;2023-05-10T14:07:04;2.30;;;1.58;;
42586;SDS011;28216;53.362;-6.288;2023-05-10T14:09:30;1.67;;;0.90;;
42586;SDS011;28216;53.362;-6.288;2023-05-10T14:11:55;3.53;;;0.88;;
42586;SDS011;28216;53.362;-6.288;2023-05-10T14:14:24;4.00;;;0.90;;
42586;SDS011;28216;53.362;-6.288;2023-05-10T14:16:53;2.72;;;0.80;;
42586;SDS011;28216;53.362;-6.288;2023-05-10T14:19:18;1.95;;;0.90;;
42586;SDS011;28216;53.362;-6.288;2023-05-10T14:21:49;1.50;;;0.90;;
42586;SDS011;28216;53.362;-6.288;2023-05-10T14:24:16;1.25;;;0.90;;
42586;SDS011;28216;53.362;-6.288;2023-05-10T14:26:44;2.10;;;0.98;;
42586;SDS011;28216;53.362;-6.288;2023-05-10T14:29:20;3.05;;;0.90;;
42586;SDS011;28216;53.362;-6.288;2023-05-10T14:31:46;2.72;;;1.05;;
42586;SDS011;28216;53.362;-6.288;2023-05-10T14:34:11;1.60;;;0.93;;
42586;SDS011;28216;53.362;-6.288;2023-05-10T14:36:37;1.60;;;1.05;;
42586;SDS011;28216;53.362;-6.288;2023-05-10T14:39:05;2.38;;;0.95;;
42586;SDS011;28216;53.362;-6.288;2023-05-10T14:41:38;4.07;;;1.33;;
42586;SDS011;28216;53.362;-6.288;2023-05-10T14:44:07;2.60;;;1.10;;
42586;SDS011;28216;53.362;-6.288;2023-05-10T14:46:44;1.73;;;1.00;;
42586;SDS011;28216;53.362;-6.288;2023-05-10T14:49:12;2.30;;;1.00;;
42586;SDS011;28216;53.362;-6.288;2023-05-10T14:51:40;2.92;;;1.00;;
42586;SDS011;28216;53.362;-6.288;2023-05-10T14:54:11;2.15;;;1.00;;
42586;SDS011;28216;53.362;-6.288;2023-05-10T14:56:36;1.83;;;0.60;;
42586;SDS011;28216;53.362;-6.288;2023-05-10T14:59:06;1.83;;;0.90;;
42586;SDS011;28216;53.362;-6.288;2023-05-10T15:01:37;2.00;;;1.08;;
42586;SDS011;28216;53.362;-6.288;2023-05-10T15:04:33;2.72;;;1.25;;
42586;SDS011;28216;53.362;-6.288;2023-05-10T15:06:58;2.67;;;0.90;;
42586;SDS011;28216;53.362;-6.288;2023-05-10T15:09:26;1.85;;;1.08;;
42586;SDS011;28216;53.362;-6.288;2023-05-10T15:11:52;1.55;;;0.82;;
42586;SDS011;28216;53.362;-6.288;2023-05-10T15:14:23;2.70;;;1.00;;
42586;SDS011;28216;53.362;-6.288;2023-05-10T15:16:49;2.78;;;0.88;;
42586;SDS011;28216;53.362;-6.288;2023-05-10T15:19:19;1.52;;;1.00;;
42586;SDS011;28216;53.362;-6.288;2023-05-10T15:21:49;1.27;;;1.02;;
42586;SDS011;28216;53.362;-6.288;2023-05-10T15:24:17;2.30;;;1.30;;
42586;SDS011;28216;53.362;-6.288;2023-05-10T15:26:43;2.97;;;1.02;;
42586;SDS011;28216;53.362;-6.288;2023-05-10T15:29:19;2.35;;;1.30;;
42586;SDS011;28216;53.362;-6.288;2023-05-10T15:31:50;3.85;;;1.00;;
42586;SDS011;28216;53.362;-6.288;2023-05-10T15:34:26;2.15;;;1.00;;
42586;SDS011;28216;53.362;-6.288;2023-05-10T15:36:52;2.58;;;1.20;;
42586;SDS011;28216;53.362;-6.288;2023-05-10T15:39:17;2.38;;;1.00;;
42586;SDS011;28216;53.362;-6.288;2023-05-10T15:41:42;2.97;;;1.02;;
42586;SDS011;28216;53.362;-6.288;2023-05-10T15:44:08;1.42;;;0.98;;
42586;SDS011;28216;53.362;-6.288;2023-05-10T15:46:33;1.55;;;1.00;;